createdAt,value
2022-10-11T00:00:11.746Z,65.76
2022-10-11T00:00:44.183Z,65.67
2022-10-11T00:01:16.189Z,65.83
2022-10-11T00:01:48.112Z,66.40
2022-10-11T00:02:20.114Z,66.57
2022-10-11T00:02:51.958Z,66.56
2022-10-11T00:03:23.777Z,66.77
2022-10-11T00:03:55.622Z,66.87
2022-10-11T00:04:27.437Z,66.79
2022-10-11T00:04:59.232Z,66.70
2022-10-11T00:05:31.270Z,66.54
2022-10-11T00:06:05.897Z,66.58
2022-10-11T00:06:38.538Z,66.59
2022-10-11T00:07:10.401Z,66.47
2022-10-11T00:07:42.268Z,66.36
2022-10-11T00:08:14.583Z,66.38
2022-10-11T00:08:46.437Z,66.53
2022-10-11T00:09:18.275Z,66.83
2022-10-11T00:09:50.151Z,67.01
2022-10-11T00:10:22.222Z,67.31
2022-10-11T00:11:01.944Z,67.72
2022-10-11T00:11:34.213Z,68.21
2022-10-11T00:12:06.897Z,68.54
2022-10-11T00:12:38.837Z,68.90
2022-10-11T00:13:10.797Z,68.87
2022-10-11T00:13:42.636Z,68.67
2022-10-11T00:14:14.704Z,68.23
2022-10-11T00:14:46.507Z,68.26
2022-10-11T00:15:21.138Z,68.33
2022-10-11T00:15:53.484Z,68.74
2022-10-11T00:16:25.320Z,69.04
2022-10-11T00:16:57.478Z,68.80
2022-10-11T00:17:29.456Z,69.16
2022-10-11T00:18:05.256Z,69.18
2022-10-11T00:18:38.330Z,69.08
2022-10-11T00:19:11.373Z,68.72
2022-10-11T00:19:43.181Z,68.98
2022-10-11T00:20:15.018Z,69.09
2022-10-11T00:20:46.843Z,69.36
2022-10-11T00:21:20.628Z,69.61
2022-10-11T00:21:52.449Z,69.65
2022-10-11T00:22:24.572Z,69.57
2022-10-11T00:22:56.431Z,69.25
2022-10-11T00:23:28.231Z,68.92
2022-10-11T00:24:00.192Z,68.72
2022-10-11T00:24:32.030Z,69.22
2022-10-11T00:25:06.097Z,69.21
2022-10-11T00:25:37.990Z,69.67
2022-10-11T00:26:11.365Z,70.02
2022-10-11T00:26:46.807Z,70.13
2022-10-11T00:27:19.653Z,70.19
2022-10-11T00:27:51.942Z,69.99
2022-10-11T00:28:23.847Z,69.89
2022-10-11T00:28:55.779Z,69.93
2022-10-11T00:29:27.697Z,69.86
2022-10-11T00:29:59.508Z,69.75
2022-10-11T00:30:32.330Z,69.86
2022-10-11T00:31:11.072Z,69.84
2022-10-11T00:31:43.080Z,70.02
2022-10-11T00:32:14.912Z,70.29
2022-10-11T00:32:46.763Z,70.35
2022-10-11T00:33:19.024Z,70.46
2022-10-11T00:33:50.971Z,70.70
2022-10-11T00:34:23.016Z,70.89
2022-10-11T00:34:56.174Z,71.44
2022-10-11T00:35:28.035Z,71.62
2022-10-11T00:36:01.581Z,71.58
2022-10-11T00:36:34.090Z,71.85
2022-10-11T00:37:06.026Z,71.90
2022-10-11T00:37:39.455Z,71.80
2022-10-11T00:38:11.528Z,71.98
2022-10-11T00:38:44.551Z,72.15
2022-10-11T00:39:16.508Z,71.86
2022-10-11T00:39:49.461Z,71.95
2022-10-11T00:40:21.508Z,72.11
2022-10-11T00:40:53.425Z,71.92
2022-10-11T00:41:25.294Z,71.91
2022-10-11T00:41:57.148Z,71.97
2022-10-11T00:42:29.031Z,71.78
2022-10-11T00:43:00.891Z,71.99
2022-10-11T00:43:33.045Z,72.00
2022-10-11T00:44:12.844Z,71.75
2022-10-11T00:44:48.964Z,71.67
2022-10-11T00:45:40.936Z,71.68
2022-10-11T00:46:18.734Z,71.61
2022-10-11T00:47:12.553Z,71.69
2022-10-11T00:47:44.412Z,71.52
2022-10-11T00:48:27.659Z,71.39
2022-10-11T00:49:14.584Z,71.23
2022-10-11T00:49:59.453Z,71.50
2022-10-11T00:50:33.828Z,71.59
2022-10-11T00:51:16.451Z,71.73
2022-10-11T00:51:56.691Z,71.57
2022-10-11T00:52:43.324Z,71.64
2022-10-11T00:53:15.524Z,71.54
2022-10-11T00:53:50.181Z,71.47
2022-10-11T00:54:25.712Z,71.58
2022-10-11T00:55:01.406Z,71.67
2022-10-11T00:55:38.969Z,71.66
2022-10-11T00:56:19.708Z,71.80
2022-10-11T00:56:54.079Z,71.92
2022-10-11T00:57:30.963Z,72.30
2022-10-11T00:58:03.137Z,72.47
2022-10-11T00:58:37.121Z,72.67
2022-10-11T00:59:13.930Z,72.72
2022-10-11T00:59:50.424Z,72.81
2022-10-11T01:00:22.685Z,72.87
2022-10-11T01:00:54.845Z,72.96
2022-10-11T01:01:27.231Z,73.03
2022-10-11T01:01:59.294Z,72.98
2022-10-11T01:02:31.363Z,72.92
2022-10-11T01:03:04.853Z,72.87
2022-10-11T01:03:38.652Z,73.25
2022-10-11T01:04:10.512Z,73.33
2022-10-11T01:04:42.848Z,73.10
2022-10-11T01:05:29.367Z,72.79
2022-10-11T01:06:03.845Z,73.39
2022-10-11T01:06:36.057Z,73.24
2022-10-11T01:07:09.519Z,73.62
2022-10-11T01:07:42.180Z,73.48
2022-10-11T01:08:14.028Z,73.90
2022-10-11T01:08:46.511Z,73.98
2022-10-11T01:09:20.180Z,73.80
2022-10-11T01:09:52.056Z,73.88
2022-10-11T01:10:23.942Z,73.78
2022-10-11T01:10:56.792Z,73.57
2022-10-11T01:11:31.129Z,73.17
2022-10-11T01:12:07.045Z,72.86
2022-10-11T01:13:03.685Z,73.01
2022-10-11T01:13:57.240Z,73.12
2022-10-11T01:14:57.020Z,72.83
2022-10-11T01:15:42.497Z,72.73
2022-10-11T01:16:30.835Z,72.74
2022-10-11T01:17:27.519Z,72.64
2022-10-11T01:18:22.420Z,72.75
2022-10-11T01:19:06.148Z,72.76
2022-10-11T01:20:02.367Z,72.74
2022-10-11T01:20:57.024Z,72.76
2022-10-11T01:21:52.191Z,72.72
2022-10-11T01:23:08.204Z,72.51
2022-10-11T01:23:54.503Z,72.64
2022-10-11T01:24:28.988Z,72.60
2022-10-11T01:25:12.695Z,72.76
2022-10-11T01:25:44.499Z,72.80
2022-10-11T01:26:31.465Z,72.81
2022-10-11T01:27:25.482Z,73.46
2022-10-11T01:28:09.499Z,73.80
2022-10-11T01:29:11.403Z,73.52
2022-10-11T01:30:04.419Z,73.61
2022-10-11T01:30:37.941Z,73.92
2022-10-11T01:31:24.063Z,73.54
2022-10-11T01:32:07.382Z,72.93
2022-10-11T01:32:49.108Z,72.74
2022-10-11T01:33:45.415Z,72.99
2022-10-11T01:34:44.939Z,73.65
2022-10-11T01:35:25.702Z,73.67
2022-10-11T01:36:16.282Z,73.26
2022-10-11T01:37:15.229Z,72.78
2022-10-11T01:38:10.229Z,72.48
2022-10-11T01:38:47.084Z,72.15
2022-10-11T01:39:29.287Z,72.10
2022-10-11T01:40:06.249Z,72.11
2022-10-11T01:40:44.291Z,72.23
2022-10-11T01:41:23.604Z,71.99
2022-10-11T01:42:00.831Z,71.76
2022-10-11T01:42:33.771Z,71.94
2022-10-11T01:43:06.290Z,72.17
2022-10-11T01:43:40.518Z,72.64
2022-10-11T01:44:13.515Z,72.87
2022-10-11T01:44:49.137Z,72.89
2022-10-11T01:45:22.002Z,72.90
2022-10-11T01:45:56.216Z,72.88
2022-10-11T01:46:32.165Z,72.77
2022-10-11T01:47:04.130Z,72.75
2022-10-11T01:47:36.026Z,72.71
2022-10-11T01:48:10.756Z,72.74
2022-10-11T01:48:54.067Z,72.81
2022-10-11T01:49:26.271Z,72.66
2022-10-11T01:50:00.877Z,72.62
2022-10-11T01:50:35.234Z,72.52
2022-10-11T01:51:07.127Z,72.42
2022-10-11T01:51:50.230Z,73.09
2022-10-11T01:52:22.903Z,73.85
2022-10-11T01:52:57.099Z,74.17
2022-10-11T01:53:43.758Z,74.08
2022-10-11T01:54:50.249Z,74.26
2022-10-11T01:55:39.522Z,74.76
2022-10-11T01:56:36.353Z,74.64
2022-10-11T01:57:10.877Z,74.49
2022-10-11T01:57:59.909Z,74.34
2022-10-11T01:58:59.453Z,73.70
2022-10-11T01:59:58.451Z,73.35
2022-10-11T02:00:53.826Z,73.03
2022-10-11T02:01:44.417Z,72.77
2022-10-11T02:02:19.378Z,72.73
2022-10-11T02:03:18.561Z,72.67
2022-10-11T02:04:04.777Z,72.61
2022-10-11T02:04:50.852Z,72.77
2022-10-11T02:05:38.149Z,72.88
2022-10-11T02:06:16.036Z,73.06
2022-10-11T02:07:02.816Z,73.10
2022-10-11T02:07:45.465Z,73.30
2022-10-11T02:08:37.726Z,73.44
2022-10-11T02:09:25.486Z,73.40
2022-10-11T02:10:36.302Z,72.83
2022-10-11T02:11:28.882Z,72.82
2022-10-11T02:12:07.483Z,73.43
2022-10-11T02:13:11.624Z,73.48
2022-10-11T02:13:50.083Z,73.42
2022-10-11T02:14:27.026Z,73.59
2022-10-11T02:15:02.725Z,74.58
2022-10-11T02:15:39.290Z,74.76
2022-10-11T02:16:15.023Z,74.66
2022-10-11T02:16:52.432Z,74.33
2022-10-11T02:17:32.273Z,74.33
2022-10-11T02:18:10.096Z,74.41
2022-10-11T02:18:47.005Z,74.19
2022-10-11T02:19:24.942Z,74.13
2022-10-11T02:19:59.342Z,74.19
2022-10-11T02:20:33.672Z,74.11
2022-10-11T02:21:09.577Z,74.16
2022-10-11T02:21:44.418Z,73.98
2022-10-11T02:22:23.057Z,73.80
2022-10-11T02:23:03.738Z,73.97
2022-10-11T02:23:42.327Z,74.18
2022-10-11T02:24:27.624Z,74.42
2022-10-11T02:25:03.368Z,74.37
2022-10-11T02:25:36.589Z,74.60
2022-10-11T02:26:11.644Z,74.33
2022-10-11T02:26:49.224Z,74.21
2022-10-11T02:27:25.689Z,74.91
2022-10-11T02:28:01.016Z,75.07
2022-10-11T02:28:37.817Z,75.24
2022-10-11T02:29:12.348Z,75.47
2022-10-11T02:29:47.586Z,75.71
2022-10-11T02:30:19.461Z,75.45
2022-10-11T02:30:53.671Z,75.20
2022-10-11T02:31:26.270Z,75.77
2022-10-11T02:32:00.593Z,75.96
2022-10-11T02:32:34.001Z,75.57
2022-10-11T02:33:09.291Z,75.38
2022-10-11T02:33:48.134Z,75.55
2022-10-11T02:34:26.356Z,75.27
2022-10-11T02:35:00.958Z,75.20
2022-10-11T02:35:39.096Z,75.58
2022-10-11T02:36:28.717Z,75.62
2022-10-11T02:37:28.023Z,75.83
2022-10-11T02:38:12.392Z,76.37
2022-10-11T02:38:50.766Z,76.19
2022-10-11T02:39:51.643Z,75.73
2022-10-11T02:40:35.343Z,75.56
2022-10-11T02:41:18.185Z,75.70
2022-10-11T02:41:52.984Z,75.44
2022-10-11T02:42:30.899Z,74.95
2022-10-11T02:43:13.295Z,74.75
2022-10-11T02:44:08.229Z,75.01
2022-10-11T02:45:08.039Z,75.12
2022-10-11T02:45:54.126Z,74.86
2022-10-11T02:46:30.470Z,74.66
2022-10-11T02:47:03.819Z,74.64
2022-10-11T02:47:36.548Z,74.39
2022-10-11T02:48:10.379Z,74.28
2022-10-11T02:48:42.306Z,74.14
2022-10-11T02:49:16.414Z,74.31
2022-10-11T02:49:48.272Z,74.25
2022-10-11T02:50:22.298Z,74.65
2022-10-11T02:50:56.129Z,75.14
2022-10-11T02:51:31.734Z,75.37
2022-10-11T02:52:05.758Z,75.47
2022-10-11T02:52:37.626Z,75.29
2022-10-11T02:53:09.809Z,75.25
2022-10-11T02:53:41.684Z,75.16
2022-10-11T02:54:13.493Z,75.11
2022-10-11T02:54:45.637Z,75.42
2022-10-11T02:55:17.572Z,75.44
2022-10-11T02:55:51.708Z,75.47
2022-10-11T02:56:23.565Z,75.53
2022-10-11T02:56:55.398Z,75.67
2022-10-11T02:57:27.258Z,75.89
2022-10-11T02:57:59.128Z,75.95
2022-10-11T02:58:30.988Z,75.75
2022-10-11T02:59:02.879Z,75.52
2022-10-11T02:59:34.750Z,75.59
2022-10-11T03:00:07.898Z,75.65
2022-10-11T03:00:39.781Z,75.61
2022-10-11T03:01:11.628Z,75.58
2022-10-11T03:01:43.639Z,75.52
2022-10-11T03:02:15.588Z,75.39
2022-10-11T03:02:47.492Z,75.34
2022-10-11T03:03:19.522Z,75.17
2022-10-11T03:03:51.356Z,75.17
2022-10-11T03:04:23.233Z,75.43
2022-10-11T03:04:55.047Z,75.53
2022-10-11T03:05:27.192Z,75.37
2022-10-11T03:06:01.915Z,75.20
2022-10-11T03:06:34.125Z,75.21
2022-10-11T03:07:05.955Z,75.22
2022-10-11T03:07:37.826Z,74.79
2022-10-11T03:08:11.573Z,74.80
2022-10-11T03:08:43.399Z,74.99
2022-10-11T03:09:15.222Z,74.82
2022-10-11T03:09:47.173Z,74.94
2022-10-11T03:10:19.039Z,75.02
2022-10-11T03:10:51.137Z,75.31
2022-10-11T03:11:22.955Z,75.76
2022-10-11T03:11:54.761Z,75.81
2022-10-11T03:12:26.577Z,76.77
2022-10-11T03:12:58.386Z,76.79
2022-10-11T03:13:30.247Z,76.66
2022-10-11T03:14:02.066Z,76.31
2022-10-11T03:14:33.913Z,75.74
2022-10-11T03:15:06.245Z,75.59
2022-10-11T03:15:38.080Z,75.39
2022-10-11T03:16:10.723Z,75.41
2022-10-11T03:16:42.918Z,75.26
2022-10-11T03:17:34.915Z,75.51
2022-10-11T03:18:06.595Z,75.12
2022-10-11T03:18:38.479Z,74.58
2022-10-11T03:19:14.667Z,74.40
2022-10-11T03:19:50.269Z,74.40
2022-10-11T03:20:22.137Z,74.17
2022-10-11T03:20:54.204Z,74.05
2022-10-11T03:21:26.502Z,74.04
2022-10-11T03:21:58.315Z,73.85
2022-10-11T03:22:30.269Z,73.98
2022-10-11T03:23:02.222Z,73.82
2022-10-11T03:23:34.217Z,73.77
2022-10-11T03:24:06.398Z,73.51
2022-10-11T03:24:38.288Z,73.56
2022-10-11T03:25:10.096Z,73.68
2022-10-11T03:25:41.902Z,74.03
2022-10-11T03:26:13.997Z,73.84
2022-10-11T03:26:46.192Z,73.80
2022-10-11T03:27:18.033Z,73.98
2022-10-11T03:27:50.027Z,74.14
2022-10-11T03:28:22.170Z,74.73
2022-10-11T03:28:54.114Z,75.02
2022-10-11T03:29:26.001Z,75.01
2022-10-11T03:29:57.911Z,75.30
2022-10-11T03:30:29.916Z,75.29
2022-10-11T03:31:01.781Z,75.30
2022-10-11T03:31:33.620Z,75.44
2022-10-11T03:32:05.847Z,75.34
2022-10-11T03:32:37.822Z,75.14
2022-10-11T03:33:09.719Z,75.14
2022-10-11T03:33:41.576Z,75.07
2022-10-11T03:34:13.467Z,75.41
2022-10-11T03:34:45.319Z,75.44
2022-10-11T03:35:17.853Z,75.51
2022-10-11T03:35:50.594Z,75.44
2022-10-11T03:36:22.554Z,75.55
2022-10-11T03:36:54.366Z,75.33
2022-10-11T03:37:26.655Z,75.14
2022-10-11T03:37:58.477Z,75.10
2022-10-11T03:38:30.279Z,75.60
2022-10-11T03:39:03.413Z,76.03
2022-10-11T03:39:35.283Z,76.23
2022-10-11T03:40:08.739Z,76.34
2022-10-11T03:40:41.990Z,76.34
2022-10-11T03:41:13.887Z,76.32
2022-10-11T03:41:45.758Z,76.30
2022-10-11T03:42:17.580Z,76.06
2022-10-11T03:42:49.841Z,75.86
2022-10-11T03:43:21.687Z,75.97
2022-10-11T03:43:53.501Z,75.96
2022-10-11T03:44:25.419Z,75.88
2022-10-11T03:44:57.307Z,75.94
2022-10-11T03:45:29.128Z,75.94
2022-10-11T03:46:01.049Z,75.75
2022-10-11T03:46:32.981Z,75.80
2022-10-11T03:47:05.568Z,75.44
2022-10-11T03:47:38.718Z,75.11
2022-10-11T03:48:11.625Z,74.78
2022-10-11T03:48:43.444Z,74.28
2022-10-11T03:49:15.265Z,74.34
2022-10-11T03:49:47.158Z,74.54
2022-10-11T03:50:19.023Z,74.56
2022-10-11T03:50:51.045Z,74.72
2022-10-11T03:51:22.910Z,75.04
2022-10-11T03:51:54.822Z,75.46
2022-10-11T03:52:26.672Z,75.37
2022-10-11T03:52:58.672Z,75.50
2022-10-11T03:53:30.779Z,75.83
2022-10-11T03:54:02.625Z,76.08
2022-10-11T03:54:34.475Z,76.34
2022-10-11T03:55:07.287Z,76.48
2022-10-11T03:55:40.307Z,76.42
2022-10-11T03:56:12.339Z,76.65
2022-10-11T03:56:44.466Z,76.36
2022-10-11T03:57:16.276Z,76.16
2022-10-11T03:57:48.128Z,76.12
2022-10-11T03:58:20.206Z,76.11
2022-10-11T03:58:52.308Z,76.23
2022-10-11T03:59:24.504Z,76.75
2022-10-11T03:59:56.352Z,76.68
2022-10-11T04:00:28.320Z,76.73
2022-10-11T04:01:00.704Z,76.54
2022-10-11T04:01:37.565Z,76.30
2022-10-11T04:02:09.608Z,76.23
2022-10-11T04:02:41.424Z,76.41
2022-10-11T04:03:13.362Z,76.46
2022-10-11T04:03:45.218Z,76.50
2022-10-11T04:04:17.237Z,76.30
2022-10-11T04:04:49.062Z,76.34
2022-10-11T04:05:20.934Z,76.51
2022-10-11T04:05:52.824Z,76.78
2022-10-11T04:06:25.282Z,76.93
2022-10-11T04:06:57.156Z,76.96
2022-10-11T04:07:29.288Z,77.01
2022-10-11T04:08:01.135Z,76.99
2022-10-11T04:08:33.096Z,76.68
2022-10-11T04:09:05.089Z,76.63
2022-10-11T04:09:37.018Z,76.45
2022-10-11T04:10:09.087Z,76.31
2022-10-11T04:10:41.371Z,76.27
2022-10-11T04:11:13.245Z,76.34
2022-10-11T04:11:45.391Z,76.42
2022-10-11T04:12:17.213Z,76.39
2022-10-11T04:12:49.064Z,76.19
2022-10-11T04:13:20.895Z,76.35
2022-10-11T04:13:52.811Z,76.35
2022-10-11T04:14:24.689Z,76.35
2022-10-11T04:14:56.554Z,76.35
2022-10-11T04:15:28.430Z,76.30
2022-10-11T04:16:00.359Z,75.94
2022-10-11T04:16:32.268Z,76.12
2022-10-11T04:17:04.410Z,75.88
2022-10-11T04:17:36.227Z,75.79
2022-10-11T04:18:09.023Z,76.00
2022-10-11T04:18:41.026Z,75.64
2022-10-11T04:19:13.044Z,75.53
2022-10-11T04:19:44.907Z,75.92
2022-10-11T04:20:16.987Z,76.28
2022-10-11T04:20:48.868Z,75.93
2022-10-11T04:21:20.823Z,75.96
2022-10-11T04:21:52.631Z,76.03
2022-10-11T04:22:24.815Z,75.90
2022-10-11T04:22:56.652Z,75.80
2022-10-11T04:23:31.366Z,76.02
2022-10-11T04:24:03.274Z,76.30
2022-10-11T04:24:35.129Z,76.46
2022-10-11T04:25:08.221Z,76.53
2022-10-11T04:25:40.114Z,76.71
2022-10-11T04:26:12.132Z,76.44
2022-10-11T04:26:44.048Z,76.35
2022-10-11T04:27:15.962Z,76.24
2022-10-11T04:27:48.627Z,76.04
2022-10-11T04:28:20.572Z,75.60
2022-10-11T04:28:52.605Z,75.18
2022-10-11T04:29:30.063Z,75.18
2022-10-11T04:30:05.102Z,76.36
2022-10-11T04:30:37.056Z,76.50
2022-10-11T04:31:08.950Z,76.68
2022-10-11T04:31:40.823Z,76.73
2022-10-11T04:32:12.682Z,76.78
2022-10-11T04:32:45.239Z,76.71
2022-10-11T04:33:17.457Z,76.50
2022-10-11T04:33:49.508Z,75.91
2022-10-11T04:34:21.434Z,75.42
2022-10-11T04:34:53.737Z,75.07
2022-10-11T04:35:25.677Z,75.05
2022-10-11T04:35:57.713Z,75.16
2022-10-11T04:36:32.776Z,77.23
2022-10-11T04:37:04.666Z,77.94
2022-10-11T04:37:36.591Z,75.84
2022-10-11T04:38:08.526Z,75.22
2022-10-11T04:38:40.649Z,75.11
2022-10-11T04:39:12.988Z,75.30
2022-10-11T04:39:45.077Z,74.81
2022-10-11T04:40:16.959Z,75.12
2022-10-11T04:40:48.866Z,75.00
2022-10-11T04:41:20.704Z,74.61
2022-10-11T04:41:52.703Z,74.31
2022-10-11T04:42:24.567Z,74.10
2022-10-11T04:42:56.602Z,73.93
2022-10-11T04:43:28.412Z,74.07
2022-10-11T04:44:01.883Z,74.03
2022-10-11T04:44:33.708Z,74.09
2022-10-11T04:45:06.245Z,74.12
2022-10-11T04:45:38.240Z,74.18
2022-10-11T04:46:10.877Z,74.29
2022-10-11T04:46:43.232Z,74.21
2022-10-11T04:47:16.091Z,74.04
2022-10-11T04:47:48.795Z,74.23
2022-10-11T04:48:20.625Z,74.62
2022-10-11T04:48:52.478Z,74.64
2022-10-11T04:49:24.688Z,74.63
2022-10-11T04:49:56.556Z,74.64
2022-10-11T04:50:28.390Z,74.58
2022-10-11T04:51:02.172Z,74.55
2022-10-11T04:51:34.117Z,74.84
2022-10-11T04:52:06.152Z,75.33
2022-10-11T04:52:38.011Z,75.57
2022-10-11T04:53:09.903Z,75.60
2022-10-11T04:53:41.803Z,75.45
2022-10-11T04:54:13.770Z,75.17
2022-10-11T04:54:45.905Z,74.29
2022-10-11T04:55:17.876Z,73.93
2022-10-11T04:56:07.827Z,73.51
2022-10-11T04:56:40.082Z,73.68
2022-10-11T04:57:11.902Z,73.95
2022-10-11T04:57:43.767Z,74.19
2022-10-11T04:58:15.586Z,74.54
2022-10-11T04:58:54.018Z,74.82
2022-10-11T04:59:25.968Z,74.94
2022-10-11T04:59:58.197Z,74.87
2022-10-11T05:00:30.311Z,74.64
2022-10-11T05:01:02.443Z,75.11
2022-10-11T05:01:34.493Z,75.55
2022-10-11T05:02:06.466Z,75.72
2022-10-11T05:02:38.428Z,75.35
2022-10-11T05:03:10.300Z,74.98
2022-10-11T05:03:42.154Z,74.57
2022-10-11T05:04:14.053Z,74.42
2022-10-11T05:04:46.209Z,74.43
2022-10-11T05:05:18.412Z,74.53
2022-10-11T05:05:50.659Z,74.57
2022-10-11T05:06:22.510Z,74.61
2022-10-11T05:06:54.582Z,74.98
2022-10-11T05:07:26.495Z,74.93
2022-10-11T05:07:58.362Z,74.68
2022-10-11T05:08:30.482Z,74.79
2022-10-11T05:09:02.343Z,74.76
2022-10-11T05:09:34.660Z,74.83
2022-10-11T05:10:07.238Z,75.10
2022-10-11T05:10:39.432Z,75.49
2022-10-11T05:11:15.783Z,75.55
2022-10-11T05:11:48.039Z,75.55
2022-10-11T05:12:20.010Z,75.28
2022-10-11T05:12:51.846Z,74.87
2022-10-11T05:13:24.299Z,78.98
2022-10-11T05:13:56.674Z,79.17
2022-10-11T05:14:28.579Z,75.90
2022-10-11T05:15:00.482Z,74.93
2022-10-11T05:15:32.340Z,74.78
2022-10-11T05:16:08.370Z,74.62
2022-10-11T05:16:42.609Z,74.14
2022-10-11T05:17:14.477Z,74.39
2022-10-11T05:17:46.309Z,74.54
2022-10-11T05:18:18.370Z,74.01
2022-10-11T05:18:50.260Z,73.91
2022-10-11T05:19:22.123Z,73.70
2022-10-11T05:19:53.981Z,73.31
2022-10-11T05:20:26.570Z,73.01
2022-10-11T05:21:06.851Z,72.84
2022-10-11T05:21:39.020Z,72.40
2022-10-11T05:22:10.844Z,71.96
2022-10-11T05:22:42.679Z,71.76
2022-10-11T05:23:14.909Z,71.67
2022-10-11T05:23:48.504Z,71.60
2022-10-11T05:24:20.424Z,71.99
2022-10-11T05:24:52.232Z,72.22
2022-10-11T05:25:24.055Z,72.41
2022-10-11T05:25:55.961Z,72.58
2022-10-11T05:26:28.308Z,72.65
2022-10-11T05:27:03.368Z,72.66
2022-10-11T05:27:35.582Z,72.68
2022-10-11T05:28:07.679Z,72.83
2022-10-11T05:28:39.884Z,73.13
2022-10-11T05:29:11.818Z,73.55
2022-10-11T05:29:43.747Z,74.03
2022-10-11T05:30:15.765Z,73.86
2022-10-11T05:30:47.620Z,73.68
2022-10-11T05:31:20.167Z,73.78
2022-10-11T05:31:51.990Z,73.58
2022-10-11T05:32:27.689Z,73.42
2022-10-11T05:33:00.131Z,73.23
2022-10-11T05:33:32.653Z,72.66
2022-10-11T05:34:04.671Z,72.55
2022-10-11T05:34:36.557Z,72.52
2022-10-11T05:35:08.895Z,72.44
2022-10-11T05:35:40.888Z,72.11
2022-10-11T05:36:13.001Z,72.25
2022-10-11T05:36:44.809Z,72.27
2022-10-11T05:37:16.659Z,72.24
2022-10-11T05:37:48.808Z,72.49
2022-10-11T05:38:20.686Z,72.53
2022-10-11T05:38:52.542Z,72.95
2022-10-11T05:39:24.487Z,73.02
2022-10-11T05:39:56.602Z,73.06
2022-10-11T05:40:28.406Z,73.21
2022-10-11T05:41:01.742Z,73.15
2022-10-11T05:41:33.731Z,73.25
2022-10-11T05:42:09.789Z,73.30
2022-10-11T05:42:41.921Z,73.43
2022-10-11T05:43:14.182Z,73.43
2022-10-11T05:43:46.086Z,73.23
2022-10-11T05:44:17.930Z,72.83
2022-10-11T05:44:49.726Z,72.89
2022-10-11T05:45:21.552Z,72.91
2022-10-11T05:45:53.459Z,72.74
2022-10-11T05:46:25.280Z,72.96
2022-10-11T05:46:57.153Z,73.10
2022-10-11T05:47:29.214Z,73.17
2022-10-11T05:48:01.056Z,73.05
2022-10-11T05:48:33.409Z,73.39
2022-10-11T05:49:05.245Z,73.36
2022-10-11T05:49:37.251Z,73.50
2022-10-11T05:50:09.582Z,73.35
2022-10-11T05:50:41.457Z,73.26
2022-10-11T05:51:13.396Z,73.49
2022-10-11T05:51:45.276Z,73.35
2022-10-11T05:52:20.433Z,73.46
2022-10-11T05:52:52.322Z,73.49
2022-10-11T05:53:24.128Z,73.38
2022-10-11T05:53:56.240Z,73.56
2022-10-11T05:54:31.474Z,73.25
2022-10-11T05:55:04.332Z,73.29
2022-10-11T05:55:38.226Z,73.08
2022-10-11T05:56:24.803Z,72.61
2022-10-11T05:56:56.760Z,72.19
2022-10-11T05:57:28.734Z,71.87
2022-10-11T05:58:00.565Z,71.54
2022-10-11T05:58:32.442Z,71.00
2022-10-11T05:59:05.045Z,70.44
2022-10-11T05:59:37.013Z,69.69
2022-10-11T06:00:09.587Z,68.90
2022-10-11T06:00:44.351Z,68.09
2022-10-11T06:01:22.206Z,67.19
2022-10-11T06:01:54.153Z,66.40
2022-10-11T06:02:26.148Z,65.28
2022-10-11T06:02:57.971Z,65.36
2022-10-11T06:03:29.823Z,64.92
2022-10-11T06:04:02.585Z,64.88
2022-10-11T06:04:37.475Z,64.01
2022-10-11T06:05:09.586Z,63.05
2022-10-11T06:05:41.563Z,62.25
2022-10-11T06:06:13.451Z,62.50
2022-10-11T06:06:45.708Z,61.45
2022-10-11T06:07:17.544Z,60.66
2022-10-11T06:07:49.385Z,59.70
2022-10-11T06:08:21.280Z,59.04
2022-10-11T06:08:53.131Z,58.79
2022-10-11T06:09:24.975Z,58.46
2022-10-11T06:09:56.820Z,58.65
2022-10-11T06:10:28.814Z,58.97
2022-10-11T06:11:12.056Z,59.00
2022-10-11T06:11:45.476Z,58.52
2022-10-11T06:12:17.977Z,58.33
2022-10-11T06:12:49.895Z,58.42
2022-10-11T06:13:21.741Z,58.10
2022-10-11T06:13:55.652Z,57.41
2022-10-11T06:14:27.738Z,57.08
2022-10-11T06:15:00.141Z,57.02
2022-10-11T06:15:32.465Z,56.53
2022-10-11T06:16:05.148Z,56.04
2022-10-11T06:16:37.703Z,55.92
2022-10-11T06:17:09.667Z,56.80
2022-10-11T06:17:41.897Z,57.03
2022-10-11T06:18:14.090Z,57.13
2022-10-11T06:18:46.062Z,57.85
2022-10-11T06:19:17.897Z,58.46
2022-10-11T06:19:50.404Z,57.96
2022-10-11T06:20:22.285Z,57.25
2022-10-11T06:20:54.151Z,57.36
2022-10-11T06:21:26.203Z,57.32
2022-10-11T06:21:58.097Z,57.34
2022-10-11T06:22:29.950Z,57.58
2022-10-11T06:23:02.113Z,57.69
2022-10-11T06:23:34.085Z,57.75
2022-10-11T06:24:06.445Z,57.90
2022-10-11T06:24:38.298Z,57.98
2022-10-11T06:25:10.854Z,58.18
2022-10-11T06:25:42.692Z,58.43
2022-10-11T06:26:14.555Z,58.63
2022-10-11T06:26:49.045Z,58.90
2022-10-11T06:27:20.975Z,59.13
2022-10-11T06:27:52.861Z,59.22
2022-10-11T06:28:27.208Z,59.20
2022-10-11T06:28:59.256Z,59.14
2022-10-11T06:29:31.140Z,59.12
2022-10-11T06:30:03.491Z,59.19
2022-10-11T06:30:35.476Z,59.45
2022-10-11T06:31:07.584Z,59.58
2022-10-11T06:31:39.512Z,59.77
2022-10-11T06:32:13.308Z,59.76
2022-10-11T06:32:45.183Z,59.64
2022-10-11T06:33:17.183Z,59.72
2022-10-11T06:33:49.301Z,60.82
2022-10-11T06:34:21.527Z,61.75
2022-10-11T06:34:53.453Z,62.63
2022-10-11T06:35:25.324Z,63.18
2022-10-11T06:35:59.331Z,63.27
2022-10-11T06:36:31.272Z,62.13
2022-10-11T06:37:03.172Z,61.59
2022-10-11T06:37:35.068Z,61.55
2022-10-11T06:38:06.895Z,61.66
2022-10-11T06:38:44.480Z,61.72
2022-10-11T06:39:17.091Z,61.73
2022-10-11T06:39:50.526Z,61.00
2022-10-11T06:40:22.370Z,60.49
2022-10-11T06:40:54.566Z,60.21
2022-10-11T06:41:28.901Z,59.47
2022-10-11T06:42:01.188Z,59.05
2022-10-11T06:42:33.060Z,58.74
2022-10-11T06:43:04.900Z,58.55
2022-10-11T06:43:36.871Z,58.45
2022-10-11T06:44:14.173Z,58.22
2022-10-11T06:44:46.619Z,58.44
2022-10-11T06:45:18.455Z,58.25
2022-10-11T06:45:50.273Z,57.88
2022-10-11T06:46:26.125Z,57.69
2022-10-11T06:46:57.951Z,57.97
2022-10-11T06:47:29.815Z,58.07
2022-10-11T06:48:02.149Z,57.96
2022-10-11T06:48:34.588Z,57.51
2022-10-11T06:49:06.801Z,57.62
2022-10-11T06:49:38.635Z,57.93
2022-10-11T06:50:10.797Z,57.97
2022-10-11T06:50:58.967Z,58.02
2022-10-11T06:51:32.549Z,58.14
2022-10-11T06:52:05.078Z,58.18
2022-10-11T06:52:36.936Z,58.39
2022-10-11T06:53:08.872Z,56.77
2022-10-11T06:53:40.966Z,57.40
2022-10-11T06:54:12.795Z,56.86
2022-10-11T06:54:45.651Z,57.51
2022-10-11T06:55:17.772Z,56.91
2022-10-11T06:55:49.666Z,56.85
2022-10-11T06:56:21.972Z,56.07
2022-10-11T06:56:53.845Z,56.64
2022-10-11T06:57:25.723Z,56.57
2022-10-11T06:57:57.612Z,56.28
2022-10-11T06:58:29.493Z,56.58
2022-10-11T06:59:01.456Z,56.15
2022-10-11T06:59:33.353Z,55.46
2022-10-11T07:00:10.328Z,54.64
2022-10-11T07:00:45.678Z,54.96
2022-10-11T07:01:20.616Z,55.24
2022-10-11T07:01:52.526Z,54.98
2022-10-11T07:02:24.344Z,55.26
2022-10-11T07:02:56.201Z,55.50
2022-10-11T07:03:29.390Z,55.39
2022-10-11T07:04:03.006Z,55.13
2022-10-11T07:04:35.155Z,55.02
2022-10-11T07:05:07.722Z,54.36
2022-10-11T07:05:39.558Z,54.20
2022-10-11T07:06:15.327Z,54.13
2022-10-11T07:06:47.164Z,54.21
2022-10-11T07:07:19.413Z,53.57
2022-10-11T07:07:51.253Z,53.20
2022-10-11T07:08:23.137Z,53.29
2022-10-11T07:08:55.528Z,53.41
2022-10-11T07:09:27.588Z,53.16
2022-10-11T07:09:59.475Z,52.81
2022-10-11T07:10:31.386Z,52.14
2022-10-11T07:11:12.241Z,52.32
2022-10-11T07:11:44.420Z,52.42
2022-10-11T07:12:17.051Z,52.32
2022-10-11T07:12:48.928Z,52.48
2022-10-11T07:13:20.805Z,52.66
2022-10-11T07:13:55.480Z,52.57
2022-10-11T07:14:27.358Z,52.14
2022-10-11T07:14:59.903Z,51.68
2022-10-11T07:15:31.806Z,52.26
2022-10-11T07:16:06.031Z,53.07
2022-10-11T07:16:38.298Z,53.11
2022-10-11T07:17:10.566Z,52.44
2022-10-11T07:17:42.572Z,52.59
2022-10-11T07:18:14.518Z,52.90
2022-10-11T07:18:47.138Z,52.90
2022-10-11T07:19:19.037Z,52.69
2022-10-11T07:19:50.941Z,52.34
2022-10-11T07:20:22.892Z,52.17
2022-10-11T07:20:54.727Z,52.87
2022-10-11T07:21:26.872Z,52.80
2022-10-11T07:21:58.737Z,52.84
2022-10-11T07:22:30.901Z,52.79
2022-10-11T07:23:02.734Z,52.74
2022-10-11T07:23:34.917Z,52.25
2022-10-11T07:24:07.104Z,52.21
2022-10-11T07:24:38.990Z,52.14
2022-10-11T07:25:10.885Z,52.26